sensor_id;sensor_type;location;lat;lon;timestamp;temperature;humidity
49579;DHT22;35483;50.828;3.228;2023-01-15T00:01:34;9.60;99.90
49579;DHT22;35483;50.828;3.228;2023-01-15T00:04:02;9.60;99.90
49579;DHT22;35483;50.828;3.228;2023-01-15T00:06:28;9.60;99.90
49579;DHT22;35483;50.828;3.228;2023-01-15T00:08:55;9.60;99.90
49579;DHT22;35483;50.828;3.228;2023-01-15T00:11:21;9.60;99.90
49579;DHT22;35483;50.828;3.228;2023-01-15T00:13:47;9.50;99.90
49579;DHT22;35483;50.828;3.228;2023-01-15T00:16:15;9.60;99.90
49579;DHT22;35483;50.828;3.228;2023-01-15T00:18:42;9.50;99.90
49579;DHT22;35483;50.828;3.228;2023-01-15T00:21:10;9.50;99.90
49579;DHT22;35483;50.828;3.228;2023-01-15T00:23:37;9.60;99.90
49579;DHT22;35483;50.828;3.228;2023-01-15T00:26:25;9.50;99.90
49579;DHT22;35483;50.828;3.228;2023-01-15T00:29:10;9.50;99.90
49579;DHT22;35483;50.828;3.228;2023-01-15T00:31:35;9.50;99.90
49579;DHT22;35483;50.828;3.228;2023-01-15T00:34:01;9.50;99.90
49579;DHT22;35483;50.828;3.228;2023-01-15T00:36:27;9.50;99.90
49579;DHT22;35483;50.828;3.228;2023-01-15T00:38:53;9.50;99.90
49579;DHT22;35483;50.828;3.228;2023-01-15T00:41:19;9.50;99.90
49579;DHT22;35483;50.828;3.228;2023-01-15T00:43:44;9.50;99.90
49579;DHT22;35483;50.828;3.228;2023-01-15T00:46:10;9.40;99.90
49579;DHT22;35483;50.828;3.228;2023-01-15T00:48:36;9.40;99.90
49579;DHT22;35483;50.828;3.228;2023-01-15T00:51:02;9.40;99.90
49579;DHT22;35483;50.828;3.228;2023-01-15T00:53:29;9.40;99.90
49579;DHT22;35483;50.828;3.228;2023-01-15T00:55:54;9.40;99.90
49579;DHT22;35483;50.828;3.228;2023-01-15T00:58:20;9.30;99.90
49579;DHT22;35483;50.828;3.228;2023-01-15T01:00:46;9.30;99.90
49579;DHT22;35483;50.828;3.228;2023-01-15T01:03:11;9.30;99.90
49579;DHT22;35483;50.828;3.228;2023-01-15T01:05:37;9.20;99.90
49579;DHT22;35483;50.828;3.228;2023-01-15T01:08:03;9.20;99.90
49579;DHT22;35483;50.828;3.228;2023-01-15T01:10:29;9.20;99.90
49579;DHT22;35483;50.828;3.228;2023-01-15T01:12:55;9.20;99.90
49579;DHT22;35483;50.828;3.228;2023-01-15T01:15:22;9.10;99.90
49579;DHT22;35483;50.828;3.228;2023-01-15T01:17:48;9.10;99.90
49579;DHT22;35483;50.828;3.228;2023-01-15T01:20:16;9.10;99.90
49579;DHT22;35483;50.828;3.228;2023-01-15T01:22:42;9.10;99.90
49579;DHT22;35483;50.828;3.228;2023-01-15T01:25:08;9.10;99.90
49579;DHT22;35483;50.828;3.228;2023-01-15T01:27:34;9.10;99.90
49579;DHT22;35483;50.828;3.228;2023-01-15T01:30:00;9.10;99.90
49579;DHT22;35483;50.828;3.228;2023-01-15T01:32:26;9.10;99.90
49579;DHT22;35483;50.828;3.228;2023-01-15T01:34:52;9.10;99.90
49579;DHT22;35483;50.828;3.228;2023-01-15T01:37:17;9.10;99.90
49579;DHT22;35483;50.828;3.228;2023-01-15T01:39:43;9.10;99.90
49579;DHT22;35483;50.828;3.228;2023-01-15T01:42:16;9.10;99.90
49579;DHT22;35483;50.828;3.228;2023-01-15T01:47:18;9.00;99.90
49579;DHT22;35483;50.828;3.228;2023-01-15T01:49:56;9.00;99.90
49579;DHT22;35483;50.828;3.228;2023-01-15T01:52:32;8.90;99.90
49579;DHT22;35483;50.828;3.228;2023-01-15T01:55:01;9.00;99.90
49579;DHT22;35483;50.828;3.228;2023-01-15T01:57:28;8.90;99.90
49579;DHT22;35483;50.828;3.228;2023-01-15T01:59:56;8.90;99.90
49579;DHT22;35483;50.828;3.228;2023-01-15T02:02:22;8.90;99.90
49579;DHT22;35483;50.828;3.228;2023-01-15T02:04:48;8.90;99.90
49579;DHT22;35483;50.828;3.228;2023-01-15T02:07:15;8.90;99.90
49579;DHT22;35483;50.828;3.228;2023-01-15T02:09:41;8.90;99.90
49579;DHT22;35483;50.828;3.228;2023-01-15T02:15:21;8.90;99.90
49579;DHT22;35483;50.828;3.228;2023-01-15T02:18:24;8.80;99.90
49579;DHT22;35483;50.828;3.228;2023-01-15T02:26:55;8.70;99.90
49579;DHT22;35483;50.828;3.228;2023-01-15T02:29:37;8.70;99.90
49579;DHT22;35483;50.828;3.228;2023-01-15T02:32:09;8.70;99.90
49579;DHT22;35483;50.828;3.228;2023-01-15T02:34:42;8.70;99.90
49579;DHT22;35483;50.828;3.228;2023-01-15T02:37:13;8.70;99.90
49579;DHT22;35483;50.828;3.228;2023-01-15T02:39:42;8.70;99.90
49579;DHT22;35483;50.828;3.228;2023-01-15T02:42:11;8.60;99.90
49579;DHT22;35483;50.828;3.228;2023-01-15T02:44:41;8.60;99.90
49579;DHT22;35483;50.828;3.228;2023-01-15T02:47:09;8.60;99.90
49579;DHT22;35483;50.828;3.228;2023-01-15T02:49:36;8.60;99.90
49579;DHT22;35483;50.828;3.228;2023-01-15T02:52:21;8.60;99.90
49579;DHT22;35483;50.828;3.228;2023-01-15T02:54:52;8.60;99.90
49579;DHT22;35483;50.828;3.228;2023-01-15T02:57:19;8.50;99.90
49579;DHT22;35483;50.828;3.228;2023-01-15T02:59:47;8.50;99.90
49579;DHT22;35483;50.828;3.228;2023-01-15T03:02:18;8.60;99.90
49579;DHT22;35483;50.828;3.228;2023-01-15T03:04:55;8.60;99.90
49579;DHT22;35483;50.828;3.228;2023-01-15T03:07:28;8.60;99.90
49579;DHT22;35483;50.828;3.228;2023-01-15T03:09:56;8.60;99.90
49579;DHT22;35483;50.828;3.228;2023-01-15T03:15:23;8.60;99.90
49579;DHT22;35483;50.828;3.228;2023-01-15T03:18:10;8.50;99.90
49579;DHT22;35483;50.828;3.228;2023-01-15T03:20:40;8.50;99.90
49579;DHT22;35483;50.828;3.228;2023-01-15T03:23:10;8.40;99.90
49579;DHT22;35483;50.828;3.228;2023-01-15T03:25:44;8.30;99.90
49579;DHT22;35483;50.828;3.228;2023-01-15T03:28:13;8.30;99.90
49579;DHT22;35483;50.828;3.228;2023-01-15T03:30:40;8.30;99.90
49579;DHT22;35483;50.828;3.228;2023-01-15T03:33:07;8.30;99.90
49579;DHT22;35483;50.828;3.228;2023-01-15T03:35:55;8.20;99.90
49579;DHT22;35483;50.828;3.228;2023-01-15T03:38:33;8.20;99.90
49579;DHT22;35483;50.828;3.228;2023-01-15T03:41:19;8.10;99.90
49579;DHT22;35483;50.828;3.228;2023-01-15T03:44:37;8.10;99.90
49579;DHT22;35483;50.828;3.228;2023-01-15T03:52:30;8.20;99.90
49579;DHT22;35483;50.828;3.228;2023-01-15T03:55:10;8.20;99.90
49579;DHT22;35483;50.828;3.228;2023-01-15T03:57:39;8.20;99.90
49579;DHT22;35483;50.828;3.228;2023-01-15T04:00:13;8.20;99.90
49579;DHT22;35483;50.828;3.228;2023-01-15T04:02:40;8.30;99.90
49579;DHT22;35483;50.828;3.228;2023-01-15T04:05:06;8.40;99.90
49579;DHT22;35483;50.828;3.228;2023-01-15T04:07:32;8.40;99.90
49579;DHT22;35483;50.828;3.228;2023-01-15T04:09:58;8.40;99.90
49579;DHT22;35483;50.828;3.228;2023-01-15T04:12:24;8.40;99.90
49579;DHT22;35483;50.828;3.228;2023-01-15T04:14:52;8.40;99.90
49579;DHT22;35483;50.828;3.228;2023-01-15T04:17:18;8.50;99.90
49579;DHT22;35483;50.828;3.228;2023-01-15T04:19:43;8.50;99.90
49579;DHT22;35483;50.828;3.228;2023-01-15T04:22:10;8.50;99.90
49579;DHT22;35483;50.828;3.228;2023-01-15T04:24:36;8.50;99.90
49579;DHT22;35483;50.828;3.228;2023-01-15T04:27:01;8.50;99.90
49579;DHT22;35483;50.828;3.228;2023-01-15T04:29:27;8.50;99.90
49579;DHT22;35483;50.828;3.228;2023-01-15T04:31:53;8.50;99.90
49579;DHT22;35483;50.828;3.228;2023-01-15T04:34:24;8.40;99.90
49579;DHT22;35483;50.828;3.228;2023-01-15T04:36:50;8.40;99.90
49579;DHT22;35483;50.828;3.228;2023-01-15T04:39:15;8.30;99.90
49579;DHT22;35483;50.828;3.228;2023-01-15T04:41:41;8.30;99.90
49579;DHT22;35483;50.828;3.228;2023-01-15T04:44:26;8.30;99.90
49579;DHT22;35483;50.828;3.228;2023-01-15T04:46:54;8.30;99.90
49579;DHT22;35483;50.828;3.228;2023-01-15T04:49:20;8.30;99.90
49579;DHT22;35483;50.828;3.228;2023-01-15T04:51:46;8.30;99.90
49579;DHT22;35483;50.828;3.228;2023-01-15T04:54:13;8.30;99.90
49579;DHT22;35483;50.828;3.228;2023-01-15T04:56:42;8.40;99.90
49579;DHT22;35483;50.828;3.228;2023-01-15T04:59:09;8.50;99.90
49579;DHT22;35483;50.828;3.228;2023-01-15T05:01:35;8.50;99.90
49579;DHT22;35483;50.828;3.228;2023-01-15T05:04:01;8.50;99.90
49579;DHT22;35483;50.828;3.228;2023-01-15T05:06:28;8.40;99.90
49579;DHT22;35483;50.828;3.228;2023-01-15T05:08:56;8.40;99.90
49579;DHT22;35483;50.828;3.228;2023-01-15T05:11:22;8.30;99.90
49579;DHT22;35483;50.828;3.228;2023-01-15T05:13:48;8.20;99.90
49579;DHT22;35483;50.828;3.228;2023-01-15T05:16:20;8.20;99.90
49579;DHT22;35483;50.828;3.228;2023-01-15T05:18:46;8.10;99.90
49579;DHT22;35483;50.828;3.228;2023-01-15T05:21:21;8.00;99.90
49579;DHT22;35483;50.828;3.228;2023-01-15T05:23:49;7.90;99.90
49579;DHT22;35483;50.828;3.228;2023-01-15T05:26:15;7.80;99.90
49579;DHT22;35483;50.828;3.228;2023-01-15T05:28:41;7.80;99.90
49579;DHT22;35483;50.828;3.228;2023-01-15T05:31:16;7.70;99.90
49579;DHT22;35483;50.828;3.228;2023-01-15T05:33:43;7.60;99.90
49579;DHT22;35483;50.828;3.228;2023-01-15T05:36:11;7.60;99.90
49579;DHT22;35483;50.828;3.228;2023-01-15T05:38:38;7.50;99.90
49579;DHT22;35483;50.828;3.228;2023-01-15T05:41:09;7.50;99.90
49579;DHT22;35483;50.828;3.228;2023-01-15T05:43:54;7.50;99.90
49579;DHT22;35483;50.828;3.228;2023-01-15T05:46:21;7.40;99.90
49579;DHT22;35483;50.828;3.228;2023-01-15T05:48:47;7.30;99.90
49579;DHT22;35483;50.828;3.228;2023-01-15T05:51:13;7.20;99.90
49579;DHT22;35483;50.828;3.228;2023-01-15T05:53:39;7.20;99.90
49579;DHT22;35483;50.828;3.228;2023-01-15T05:56:05;7.10;99.90
49579;DHT22;35483;50.828;3.228;2023-01-15T05:58:31;7.00;99.90
49579;DHT22;35483;50.828;3.228;2023-01-15T06:00:57;6.90;99.90
49579;DHT22;35483;50.828;3.228;2023-01-15T06:03:24;6.90;99.90
49579;DHT22;35483;50.828;3.228;2023-01-15T06:05:53;6.80;99.90
49579;DHT22;35483;50.828;3.228;2023-01-15T06:08:20;6.80;99.90
49579;DHT22;35483;50.828;3.228;2023-01-15T06:10:47;6.70;99.90
49579;DHT22;35483;50.828;3.228;2023-01-15T06:13:14;6.80;99.90
49579;DHT22;35483;50.828;3.228;2023-01-15T06:15:40;6.70;99.90
49579;DHT22;35483;50.828;3.228;2023-01-15T06:18:06;6.70;99.90
49579;DHT22;35483;50.828;3.228;2023-01-15T06:20:36;6.70;99.90
49579;DHT22;35483;50.828;3.228;2023-01-15T06:23:02;6.60;99.90
49579;DHT22;35483;50.828;3.228;2023-01-15T06:25:27;6.60;99.90
49579;DHT22;35483;50.828;3.228;2023-01-15T06:27:53;6.60;99.90
49579;DHT22;35483;50.828;3.228;2023-01-15T06:30:19;6.50;99.90
49579;DHT22;35483;50.828;3.228;2023-01-15T06:32:45;6.50;99.90
49579;DHT22;35483;50.828;3.228;2023-01-15T06:35:10;6.50;99.90
49579;DHT22;35483;50.828;3.228;2023-01-15T06:37:37;6.50;99.90
49579;DHT22;35483;50.828;3.228;2023-01-15T06:40:03;6.50;99.90
49579;DHT22;35483;50.828;3.228;2023-01-15T06:42:29;6.50;99.90
49579;DHT22;35483;50.828;3.228;2023-01-15T06:45:13;6.50;99.90
49579;DHT22;35483;50.828;3.228;2023-01-15T06:47:57;6.50;99.90
49579;DHT22;35483;50.828;3.228;2023-01-15T06:50:24;6.50;99.90
49579;DHT22;35483;50.828;3.228;2023-01-15T06:52:50;6.50;99.90
49579;DHT22;35483;50.828;3.228;2023-01-15T06:55:16;6.50;99.90
49579;DHT22;35483;50.828;3.228;2023-01-15T06:57:43;6.50;99.90
49579;DHT22;35483;50.828;3.228;2023-01-15T07:00:10;6.50;99.90
49579;DHT22;35483;50.828;3.228;2023-01-15T07:02:36;6.50;99.90
49579;DHT22;35483;50.828;3.228;2023-01-15T07:05:03;6.50;99.90
49579;DHT22;35483;50.828;3.228;2023-01-15T07:07:29;6.40;99.90
49579;DHT22;35483;50.828;3.228;2023-01-15T07:09:55;6.50;99.90
49579;DHT22;35483;50.828;3.228;2023-01-15T07:12:21;6.50;99.90
49579;DHT22;35483;50.828;3.228;2023-01-15T07:14:47;6.40;99.90
49579;DHT22;35483;50.828;3.228;2023-01-15T07:17:13;6.40;99.90
49579;DHT22;35483;50.828;3.228;2023-01-15T07:19:39;6.40;99.90
49579;DHT22;35483;50.828;3.228;2023-01-15T07:22:05;6.40;99.90
49579;DHT22;35483;50.828;3.228;2023-01-15T07:24:32;6.40;99.90
49579;DHT22;35483;50.828;3.228;2023-01-15T07:26:58;6.40;99.90
49579;DHT22;35483;50.828;3.228;2023-01-15T07:29:24;6.40;99.90
49579;DHT22;35483;50.828;3.228;2023-01-15T07:31:50;6.40;99.90
49579;DHT22;35483;50.828;3.228;2023-01-15T07:34:17;6.30;99.90
49579;DHT22;35483;50.828;3.228;2023-01-15T07:36:43;6.40;99.90
49579;DHT22;35483;50.828;3.228;2023-01-15T07:39:10;6.30;99.90
49579;DHT22;35483;50.828;3.228;2023-01-15T07:41:36;6.30;99.90
49579;DHT22;35483;50.828;3.228;2023-01-15T07:44:21;6.30;99.90
49579;DHT22;35483;50.828;3.228;2023-01-15T07:47:19;6.30;99.90
49579;DHT22;35483;50.828;3.228;2023-01-15T07:50:05;6.30;99.90
49579;DHT22;35483;50.828;3.228;2023-01-15T07:52:31;6.30;99.90
49579;DHT22;35483;50.828;3.228;2023-01-15T07:54:56;6.30;99.90
49579;DHT22;35483;50.828;3.228;2023-01-15T07:57:22;6.30;99.90
49579;DHT22;35483;50.828;3.228;2023-01-15T07:59:48;6.40;99.90
49579;DHT22;35483;50.828;3.228;2023-01-15T08:02:14;6.40;99.90
49579;DHT22;35483;50.828;3.228;2023-01-15T08:04:40;6.40;99.90
49579;DHT22;35483;50.828;3.228;2023-01-15T08:07:06;6.40;99.90
49579;DHT22;35483;50.828;3.228;2023-01-15T08:09:32;6.40;99.90
49579;DHT22;35483;50.828;3.228;2023-01-15T08:11:59;6.40;99.90
49579;DHT22;35483;50.828;3.228;2023-01-15T08:14:44;6.40;99.90
49579;DHT22;35483;50.828;3.228;2023-01-15T08:17:28;6.40;99.90
49579;DHT22;35483;50.828;3.228;2023-01-15T08:19:54;6.40;99.90
49579;DHT22;35483;50.828;3.228;2023-01-15T08:22:20;6.40;99.90
49579;DHT22;35483;50.828;3.228;2023-01-15T08:24:45;6.50;99.90
49579;DHT22;35483;50.828;3.228;2023-01-15T08:27:11;6.60;99.90
49579;DHT22;35483;50.828;3.228;2023-01-15T08:29:38;6.60;99.90
49579;DHT22;35483;50.828;3.228;2023-01-15T08:32:04;6.60;99.90
49579;DHT22;35483;50.828;3.228;2023-01-15T08:34:30;6.70;99.90
49579;DHT22;35483;50.828;3.228;2023-01-15T08:36:55;6.70;99.90
49579;DHT22;35483;50.828;3.228;2023-01-15T08:39:27;6.70;99.90
49579;DHT22;35483;50.828;3.228;2023-01-15T08:41:56;6.80;99.90
49579;DHT22;35483;50.828;3.228;2023-01-15T08:44:22;6.80;99.90
49579;DHT22;35483;50.828;3.228;2023-01-15T08:46:49;6.80;99.90
49579;DHT22;35483;50.828;3.228;2023-01-15T08:49:16;6.90;99.90
49579;DHT22;35483;50.828;3.228;2023-01-15T08:51:43;6.80;99.90
49579;DHT22;35483;50.828;3.228;2023-01-15T08:54:08;6.90;99.90
49579;DHT22;35483;50.828;3.228;2023-01-15T08:56:34;7.00;99.90
49579;DHT22;35483;50.828;3.228;2023-01-15T08:59:06;7.10;99.90
49579;DHT22;35483;50.828;3.228;2023-01-15T09:01:34;7.20;99.90
49579;DHT22;35483;50.828;3.228;2023-01-15T09:04:00;7.20;99.90
49579;DHT22;35483;50.828;3.228;2023-01-15T09:06:26;7.20;99.90
49579;DHT22;35483;50.828;3.228;2023-01-15T09:08:53;7.10;99.90
49579;DHT22;35483;50.828;3.228;2023-01-15T09:11:19;7.00;99.90
49579;DHT22;35483;50.828;3.228;2023-01-15T09:13:44;7.00;99.90
49579;DHT22;35483;50.828;3.228;2023-01-15T09:16:14;6.80;99.90
49579;DHT22;35483;50.828;3.228;2023-01-15T09:18:41;6.80;99.90
49579;DHT22;35483;50.828;3.228;2023-01-15T09:21:07;6.70;99.90
49579;DHT22;35483;50.828;3.228;2023-01-15T09:23:33;6.60;99.90
49579;DHT22;35483;50.828;3.228;2023-01-15T09:26:02;6.60;99.90
49579;DHT22;35483;50.828;3.228;2023-01-15T09:28:31;6.60;99.90
49579;DHT22;35483;50.828;3.228;2023-01-15T09:30:57;6.60;99.90
49579;DHT22;35483;50.828;3.228;2023-01-15T09:33:23;6.60;99.90
49579;DHT22;35483;50.828;3.228;2023-01-15T09:35:49;6.70;99.90
49579;DHT22;35483;50.828;3.228;2023-01-15T09:38:17;6.70;99.90
49579;DHT22;35483;50.828;3.228;2023-01-15T09:40:55;6.70;99.90
49579;DHT22;35483;50.828;3.228;2023-01-15T09:46:09;6.80;99.90
49579;DHT22;35483;50.828;3.228;2023-01-15T09:51:30;6.80;99.90
49579;DHT22;35483;50.828;3.228;2023-01-15T09:56:49;6.80;99.90
49579;DHT22;35483;50.828;3.228;2023-01-15T09:59:32;6.90;99.90
49579;DHT22;35483;50.828;3.228;2023-01-15T10:02:03;7.00;99.90
49579;DHT22;35483;50.828;3.228;2023-01-15T10:04:41;7.00;99.90
49579;DHT22;35483;50.828;3.228;2023-01-15T10:07:26;7.00;99.90
49579;DHT22;35483;50.828;3.228;2023-01-15T10:10:09;7.00;99.90
49579;DHT22;35483;50.828;3.228;2023-01-15T10:12:37;7.00;99.90
49579;DHT22;35483;50.828;3.228;2023-01-15T10:17:54;7.10;99.90
49579;DHT22;35483;50.828;3.228;2023-01-15T10:20:47;7.20;99.90
49579;DHT22;35483;50.828;3.228;2023-01-15T10:23:34;7.30;99.90
49579;DHT22;35483;50.828;3.228;2023-01-15T10:26:29;7.40;99.90
49579;DHT22;35483;50.828;3.228;2023-01-15T10:31:38;7.70;99.90
49579;DHT22;35483;50.828;3.228;2023-01-15T10:36:38;7.70;99.90
49579;DHT22;35483;50.828;3.228;2023-01-15T10:39:25;7.80;99.90
49579;DHT22;35483;50.828;3.228;2023-01-15T10:47:29;8.00;99.90
49579;DHT22;35483;50.828;3.228;2023-01-15T10:49:58;8.20;99.90
49579;DHT22;35483;50.828;3.228;2023-01-15T10:52:34;8.30;99.90
49579;DHT22;35483;50.828;3.228;2023-01-15T11:00:16;8.60;99.90
49579;DHT22;35483;50.828;3.228;2023-01-15T11:02:46;8.50;99.90
49579;DHT22;35483;50.828;3.228;2023-01-15T11:05:18;8.50;99.90
49579;DHT22;35483;50.828;3.228;2023-01-15T11:07:47;8.60;99.90
49579;DHT22;35483;50.828;3.228;2023-01-15T11:10:15;8.60;99.90
49579;DHT22;35483;50.828;3.228;2023-01-15T11:13:12;8.60;99.90
49579;DHT22;35483;50.828;3.228;2023-01-15T11:15:59;8.70;99.90
49579;DHT22;35483;50.828;3.228;2023-01-15T11:18:43;8.50;99.90
49579;DHT22;35483;50.828;3.228;2023-01-15T11:21:29;8.50;99.90
49579;DHT22;35483;50.828;3.228;2023-01-15T11:23:57;8.50;99.90
49579;DHT22;35483;50.828;3.228;2023-01-15T11:26:31;8.40;99.90
49579;DHT22;35483;50.828;3.228;2023-01-15T11:28:59;8.50;99.90
49579;DHT22;35483;50.828;3.228;2023-01-15T11:31:36;8.60;99.90
49579;DHT22;35483;50.828;3.228;2023-01-15T11:34:05;8.60;99.90
49579;DHT22;35483;50.828;3.228;2023-01-15T11:36:31;8.60;99.90
49579;DHT22;35483;50.828;3.228;2023-01-15T11:38:58;8.60;99.90
49579;DHT22;35483;50.828;3.228;2023-01-15T11:41:33;8.60;99.90
49579;DHT22;35483;50.828;3.228;2023-01-15T11:44:19;8.60;99.90
49579;DHT22;35483;50.828;3.228;2023-01-15T11:47:09;8.50;99.90
49579;DHT22;35483;50.828;3.228;2023-01-15T11:49:54;8.40;99.90
49579;DHT22;35483;50.828;3.228;2023-01-15T11:52:51;8.50;99.90
49579;DHT22;35483;50.828;3.228;2023-01-15T11:55:19;8.50;99.90
49579;DHT22;35483;50.828;3.228;2023-01-15T11:57:46;8.40;99.90
49579;DHT22;35483;50.828;3.228;2023-01-15T12:00:29;8.40;99.90
49579;DHT22;35483;50.828;3.228;2023-01-15T12:03:10;8.40;99.90
49579;DHT22;35483;50.828;3.228;2023-01-15T12:05:45;8.40;99.90
49579;DHT22;35483;50.828;3.228;2023-01-15T12:10:56;8.60;99.90
49579;DHT22;35483;50.828;3.228;2023-01-15T12:13:36;8.60;99.90
49579;DHT22;35483;50.828;3.228;2023-01-15T12:19:17;8.70;99.90
49579;DHT22;35483;50.828;3.228;2023-01-15T12:22:03;8.80;99.90
49579;DHT22;35483;50.828;3.228;2023-01-15T12:29:57;8.70;99.90
49579;DHT22;35483;50.828;3.228;2023-01-15T12:32:37;8.70;99.90
49579;DHT22;35483;50.828;3.228;2023-01-15T12:35:07;8.90;99.90
49579;DHT22;35483;50.828;3.228;2023-01-15T12:37:45;8.90;99.90
49579;DHT22;35483;50.828;3.228;2023-01-15T12:40:27;8.90;99.90
49579;DHT22;35483;50.828;3.228;2023-01-15T12:42:54;9.00;99.90
49579;DHT22;35483;50.828;3.228;2023-01-15T12:45:46;9.00;99.90
49579;DHT22;35483;50.828;3.228;2023-01-15T12:48:36;8.80;99.90
49579;DHT22;35483;50.828;3.228;2023-01-15T12:51:05;8.80;99.90
49579;DHT22;35483;50.828;3.228;2023-01-15T12:53:44;8.80;99.90
49579;DHT22;35483;50.828;3.228;2023-01-15T12:56:34;8.70;99.90
49579;DHT22;35483;50.828;3.228;2023-01-15T13:01:59;8.60;99.90
49579;DHT22;35483;50.828;3.228;2023-01-15T13:07:20;8.40;99.90
49579;DHT22;35483;50.828;3.228;2023-01-15T13:09:51;8.30;99.90
49579;DHT22;35483;50.828;3.228;2023-01-15T13:12:18;8.30;99.90
49579;DHT22;35483;50.828;3.228;2023-01-15T13:14:44;8.30;99.90
49579;DHT22;35483;50.828;3.228;2023-01-15T13:17:16;8.30;99.90
49579;DHT22;35483;50.828;3.228;2023-01-15T13:22:31;8.20;99.90
49579;DHT22;35483;50.828;3.228;2023-01-15T13:37:17;8.00;99.90
49579;DHT22;35483;50.828;3.228;2023-01-15T13:39:45;8.00;99.90
49579;DHT22;35483;50.828;3.228;2023-01-15T13:42:19;8.10;99.90
49579;DHT22;35483;50.828;3.228;2023-01-15T13:47:33;8.10;99.90
49579;DHT22;35483;50.828;3.228;2023-01-15T13:50:14;8.00;99.90
49579;DHT22;35483;50.828;3.228;2023-01-15T13:52:40;8.10;99.90
49579;DHT22;35483;50.828;3.228;2023-01-15T13:55:10;8.00;99.90
49579;DHT22;35483;50.828;3.228;2023-01-15T13:57:38;8.10;99.90
49579;DHT22;35483;50.828;3.228;2023-01-15T14:00:07;8.00;99.90
49579;DHT22;35483;50.828;3.228;2023-01-15T14:02:36;8.10;99.90
49579;DHT22;35483;50.828;3.228;2023-01-15T14:05:33;8.20;99.90
49579;DHT22;35483;50.828;3.228;2023-01-15T14:08:01;8.10;99.90
49579;DHT22;35483;50.828;3.228;2023-01-15T14:10:37;8.10;99.90
49579;DHT22;35483;50.828;3.228;2023-01-15T14:21:35;8.10;99.90
49579;DHT22;35483;50.828;3.228;2023-01-15T14:24:18;8.10;99.90
49579;DHT22;35483;50.828;3.228;2023-01-15T14:29:45;8.00;99.90
49579;DHT22;35483;50.828;3.228;2023-01-15T14:35:14;8.10;99.90
49579;DHT22;35483;50.828;3.228;2023-01-15T14:37:59;8.00;99.90
49579;DHT22;35483;50.828;3.228;2023-01-15T14:40:32;8.00;99.90
49579;DHT22;35483;50.828;3.228;2023-01-15T14:43:02;8.10;99.90
49579;DHT22;35483;50.828;3.228;2023-01-15T14:45:38;8.00;99.90
49579;DHT22;35483;50.828;3.228;2023-01-15T14:48:18;7.90;99.90
49579;DHT22;35483;50.828;3.228;2023-01-15T14:50:46;7.70;99.90
49579;DHT22;35483;50.828;3.228;2023-01-15T14:53:16;7.60;99.90
49579;DHT22;35483;50.828;3.228;2023-01-15T15:01:29;7.50;99.90
49579;DHT22;35483;50.828;3.228;2023-01-15T15:04:03;7.50;99.90
49579;DHT22;35483;50.828;3.228;2023-01-15T15:06:32;7.40;99.90
49579;DHT22;35483;50.828;3.228;2023-01-15T15:09:02;7.40;99.90
49579;DHT22;35483;50.828;3.228;2023-01-15T15:11:43;7.40;99.90
49579;DHT22;35483;50.828;3.228;2023-01-15T15:14:28;7.30;99.90
49579;DHT22;35483;50.828;3.228;2023-01-15T15:16:59;7.30;99.90
49579;DHT22;35483;50.828;3.228;2023-01-15T15:19:49;7.40;99.90
49579;DHT22;35483;50.828;3.228;2023-01-15T15:22:18;7.40;99.90
49579;DHT22;35483;50.828;3.228;2023-01-15T15:24:48;7.20;99.90
49579;DHT22;35483;50.828;3.228;2023-01-15T15:27:18;7.20;99.90
49579;DHT22;35483;50.828;3.228;2023-01-15T15:29:44;7.20;99.90
49579;DHT22;35483;50.828;3.228;2023-01-15T15:32:17;7.20;99.90
49579;DHT22;35483;50.828;3.228;2023-01-15T15:34:46;7.30;99.90
49579;DHT22;35483;50.828;3.228;2023-01-15T15:37:27;7.20;99.90
49579;DHT22;35483;50.828;3.228;2023-01-15T15:40:15;7.30;99.90
49579;DHT22;35483;50.828;3.228;2023-01-15T15:42:48;7.30;99.90
49579;DHT22;35483;50.828;3.228;2023-01-15T15:45:34;7.20;99.90
49579;DHT22;35483;50.828;3.228;2023-01-15T15:48:30;7.20;99.90
49579;DHT22;35483;50.828;3.228;2023-01-15T15:53:50;7.10;99.90
49579;DHT22;35483;50.828;3.228;2023-01-15T15:56:16;7.00;99.90
49579;DHT22;35483;50.828;3.228;2023-01-15T15:58:42;7.00;99.90
49579;DHT22;35483;50.828;3.228;2023-01-15T16:01:12;7.00;99.90
49579;DHT22;35483;50.828;3.228;2023-01-15T16:03:45;7.10;99.90
49579;DHT22;35483;50.828;3.228;2023-01-15T16:06:19;7.10;99.90
49579;DHT22;35483;50.828;3.228;2023-01-15T16:08:55;7.20;99.90
49579;DHT22;35483;50.828;3.228;2023-01-15T16:11:23;7.20;99.90
49579;DHT22;35483;50.828;3.228;2023-01-15T16:13:51;7.20;99.90
49579;DHT22;35483;50.828;3.228;2023-01-15T16:16:18;7.10;99.90
49579;DHT22;35483;50.828;3.228;2023-01-15T16:18:48;7.10;99.90
49579;DHT22;35483;50.828;3.228;2023-01-15T16:23:57;7.20;99.90
49579;DHT22;35483;50.828;3.228;2023-01-15T16:26:39;7.30;99.90
49579;DHT22;35483;50.828;3.228;2023-01-15T16:29:28;7.30;99.90
49579;DHT22;35483;50.828;3.228;2023-01-15T16:31:54;7.40;99.90
49579;DHT22;35483;50.828;3.228;2023-01-15T16:34:33;7.30;99.90
49579;DHT22;35483;50.828;3.228;2023-01-15T16:36:59;7.30;99.90
49579;DHT22;35483;50.828;3.228;2023-01-15T16:39:27;7.30;99.90
49579;DHT22;35483;50.828;3.228;2023-01-15T16:41:56;7.30;99.90
49579;DHT22;35483;50.828;3.228;2023-01-15T16:46:59;7.40;99.90
49579;DHT22;35483;50.828;3.228;2023-01-15T16:49:30;7.30;99.90
49579;DHT22;35483;50.828;3.228;2023-01-15T16:51:59;7.30;99.90
49579;DHT22;35483;50.828;3.228;2023-01-15T16:56:57;7.30;99.90
49579;DHT22;35483;50.828;3.228;2023-01-15T17:02:03;7.30;99.90
49579;DHT22;35483;50.828;3.228;2023-01-15T17:04:35;7.30;99.90
49579;DHT22;35483;50.828;3.228;2023-01-15T17:07:21;7.40;99.90
49579;DHT22;35483;50.828;3.228;2023-01-15T17:09:53;7.50;99.90
49579;DHT22;35483;50.828;3.228;2023-01-15T17:12:29;7.50;99.90
49579;DHT22;35483;50.828;3.228;2023-01-15T17:17:46;7.50;99.90
49579;DHT22;35483;50.828;3.228;2023-01-15T17:20:13;7.50;99.90
49579;DHT22;35483;50.828;3.228;2023-01-15T17:22:40;7.50;99.90
49579;DHT22;35483;50.828;3.228;2023-01-15T17:25:23;7.50;99.90
49579;DHT22;35483;50.828;3.228;2023-01-15T17:27:52;7.50;99.90
49579;DHT22;35483;50.828;3.228;2023-01-15T17:30:19;7.40;99.90
49579;DHT22;35483;50.828;3.228;2023-01-15T17:32:45;7.40;99.90
49579;DHT22;35483;50.828;3.228;2023-01-15T17:35:21;7.40;99.90
49579;DHT22;35483;50.828;3.228;2023-01-15T17:37:48;7.50;99.90
49579;DHT22;35483;50.828;3.228;2023-01-15T17:40:14;7.40;99.90
49579;DHT22;35483;50.828;3.228;2023-01-15T17:42:39;7.40;99.90
49579;DHT22;35483;50.828;3.228;2023-01-15T17:45:06;7.40;99.90
49579;DHT22;35483;50.828;3.228;2023-01-15T17:47:32;7.50;99.90
49579;DHT22;35483;50.828;3.228;2023-01-15T17:49:58;7.50;99.90
49579;DHT22;35483;50.828;3.228;2023-01-15T17:52:24;7.50;99.90
49579;DHT22;35483;50.828;3.228;2023-01-15T17:54:49;7.50;99.90
49579;DHT22;35483;50.828;3.228;2023-01-15T17:57:33;7.60;99.90
49579;DHT22;35483;50.828;3.228;2023-01-15T18:00:18;7.60;99.90
49579;DHT22;35483;50.828;3.228;2023-01-15T18:03:03;7.50;99.90
49579;DHT22;35483;50.828;3.228;2023-01-15T18:05:49;7.50;99.90
49579;DHT22;35483;50.828;3.228;2023-01-15T18:08:16;7.50;99.90